Atlantic Osprey — CFH8950 — position and weather

sailwx.info

Track history (hours):
 
Tides and Currents Weather Stations Pressure Air Temp Water Temp Dewpoint Dewpoint Depression Visibility Wind Speed Wind Dir Waves Ship Positions

Atlantic Osprey

Last reported at 2014-Dec-19 01:25 UTC. Time now 2014-Dec-20 03:01 UTC.
Position N 47°29' W 052°04'.

Length 3 m; draft 6.6 m.

Type: Tug. MMSI: 316004850.

Date/timePositionNaut miles runAvg speedWind from/ knotsBaromVisibWave heightAir tempDewpointWater temp
2014-Dec-19 01:25N 47°29' W 052°04'9 9.9
2014-Dec-19 00:30N 47°32' W 052°17'1010.2
2014-Dec-18 23:33N 47°33' W 052°31'7 7.1
2014-Dec-18 22:30N 47°34' W 052°42'0 0.0
2014-Dec-18 21:33N 47°34' W 052°42'0 0.0
2014-Dec-18 20:30N 47°34' W 052°42'0 0.0
2014-Dec-18 19:29N 47°34' W 052°42'0 0.0
2014-Dec-18 18:32N 47°34' W 052°42'0 0.0
2014-Dec-18 17:29N 47°34' W 052°42'0 0.0
2014-Dec-18 16:30N 47°34' W 052°42'0 0.0
2014-Dec-18 15:31N 47°34' W 052°42'0 0.0
2014-Dec-18 14:29N 47°34' W 052°42'0 0.0
2014-Dec-18 13:31N 47°34' W 052°42'0 0.0
2014-Dec-18 12:32N 47°34' W 052°42'0 0.0
2014-Dec-18 11:30N 47°34' W 052°42'0 0.5
2014-Dec-18 10:33N 47°34' W 052°42'0 0.0
2014-Dec-18 09:32N 47°34' W 052°42'0 0.0
2014-Dec-18 08:30N 47°34' W 052°42'0 0.0
2014-Dec-18 07:32N 47°34' W 052°42'0 0.0
2014-Dec-18 06:30N 47°34' W 052°42'0 0.0
2014-Dec-18 05:33N 47°34' W 052°42'0 0.0
2014-Dec-18 04:31N 47°34' W 052°42'0 0.0
2014-Dec-18 03:30N 47°34' W 052°42'0 0.0
2014-Dec-18 02:29N 47°34' W 052°42'0 0.0
2014-Dec-18 01:32N 47°34' W 052°42'0 0.0
2014-Dec-18 00:30N 47°34' W 052°42'0 0.0
2014-Dec-17 23:33N 47°34' W 052°42'0 0.0
2014-Dec-17 22:30N 47°34' W 052°42'0 0.0
2014-Dec-17 21:33N 47°34' W 052°42'0 0.0
2014-Dec-17 20:31N 47°34' W 052°42'0 0.0
2014-Dec-17 19:29N 47°34' W 052°42'0 0.0
2014-Dec-17 18:33N 47°34' W 052°42'0 0.0
2014-Dec-17 17:32N 47°34' W 052°42'0 0.0
2014-Dec-17 16:33N 47°34' W 052°42'0 0.0
2014-Dec-17 15:31N 47°34' W 052°42'0 0.0
2014-Dec-17 14:30N 47°34' W 052°42'0 0.0
2014-Dec-17 13:32N 47°34' W 052°42'0 0.0
2014-Dec-17 12:29N 47°34' W 052°42'0 0.5
2014-Dec-17 11:33N 47°34' W 052°42'0 0.0
2014-Dec-17 10:28N 47°34' W 052°42'0 0.0
2014-Dec-17 09:20N 47°34' W 052°42'0 0.0
2014-Dec-17 08:10N 47°34' W 052°42'0 0.0
2014-Dec-17 07:11N 47°34' W 052°42'0 0.0
2014-Dec-17 06:18N 47°34' W 052°42'0 0.0
2014-Dec-17 05:25N 47°34' W 052°42'0 0.0
2014-Dec-17 04:26N 47°34' W 052°42'0 0.0
2014-Dec-17 03:33N 47°34' W 052°42'0 0.0
2014-Dec-17 02:29N 47°34' W 052°42'0 0.0
2014-Dec-17 01:30N 47°34' W 052°42'0 0.0
2014-Dec-17 00:28N 47°34' W 052°42'0 0.0
2014-Dec-16 23:31N 47°34' W 052°42'0 0.0
2014-Dec-16 22:33N 47°34' W 052°42'0 0.0
2014-Dec-16 21:18N 47°34' W 052°42'0 0.0
2014-Dec-16 20:28N 47°34' W 052°42'0 0.0
2014-Dec-16 19:31N 47°34' W 052°42'0 0.0
2014-Dec-16 18:27N 47°34' W 052°42'0 0.2
2014-Dec-16 17:27N 47°34' W 052°42'9 9.8
2014-Dec-16 16:31N 47°33' W 052°28'1010.7
2014-Dec-16 15:33N 47°31' W 052°13'  
2014-Dec-11 20:22N 47°30' W 052°06'8 9.3
2014-Dec-11 19:32N 47°32' W 052°17'10 9.5
2014-Dec-11 18:30N 47°33' W 052°31'7 7.5
2014-Dec-11 17:33N 47°34' W 052°42'0 0.2
2014-Dec-11 16:31N 47°34' W 052°42'0 0.0
2014-Dec-11 15:30N 47°34' W 052°42'0 0.0
2014-Dec-11 14:33N 47°34' W 052°42'0 0.0
2014-Dec-11 13:31N 47°34' W 052°42'0 0.0
2014-Dec-11 12:33N 47°34' W 052°42'2 1.9
2014-Dec-11 11:30N 47°34' W 052°39'1110.0
2014-Dec-11 10:25N 47°23' W 052°40'6 0.1
2014-Dec-09 10:31N 47°17' W 052°39'1310.1
2014-Dec-09 09:12N 47°15' W 052°20'  
Track history (hours):
 
Tides and Currents Weather Stations Pressure Air Temp Water Temp Dewpoint Dewpoint Depression Visibility Wind Speed Wind Dir Waves Ship Positions

Atlantic Osprey

Last reported at 2014-Dec-19 01:25 UTC. Time now 2014-Dec-20 03:01 UTC.
Position N 47°29' W 052°04'.

Length 3 m; draft 6.6 m.

Type: Tug. MMSI: 316004850.

Date/timePositionNaut miles runAvg speedWind from/ knotsBaromVisibWave heightAir tempDewpointWater temp
2014-Dec-19 01:25N 47°29' W 052°04'9 9.9
2014-Dec-19 00:30N 47°32' W 052°17'1010.2
2014-Dec-18 23:33N 47°33' W 052°31'7 7.1
2014-Dec-18 22:30N 47°34' W 052°42'0 0.0
2014-Dec-18 21:33N 47°34' W 052°42'0 0.0
2014-Dec-18 20:30N 47°34' W 052°42'0 0.0
2014-Dec-18 19:29N 47°34' W 052°42'0 0.0
2014-Dec-18 18:32N 47°34' W 052°42'0 0.0
2014-Dec-18 17:29N 47°34' W 052°42'0 0.0
2014-Dec-18 16:30N 47°34' W 052°42'0 0.0
2014-Dec-18 15:31N 47°34' W 052°42'0 0.0
2014-Dec-18 14:29N 47°34' W 052°42'0 0.0
2014-Dec-18 13:31N 47°34' W 052°42'0 0.0
2014-Dec-18 12:32N 47°34' W 052°42'0 0.0
2014-Dec-18 11:30N 47°34' W 052°42'0 0.5
2014-Dec-18 10:33N 47°34' W 052°42'0 0.0
2014-Dec-18 09:32N 47°34' W 052°42'0 0.0
2014-Dec-18 08:30N 47°34' W 052°42'0 0.0
2014-Dec-18 07:32N 47°34' W 052°42'0 0.0
2014-Dec-18 06:30N 47°34' W 052°42'0 0.0
2014-Dec-18 05:33N 47°34' W 052°42'0 0.0
2014-Dec-18 04:31N 47°34' W 052°42'0 0.0
2014-Dec-18 03:30N 47°34' W 052°42'0 0.0
2014-Dec-18 02:29N 47°34' W 052°42'0 0.0
2014-Dec-18 01:32N 47°34' W 052°42'0 0.0
2014-Dec-18 00:30N 47°34' W 052°42'0 0.0
2014-Dec-17 23:33N 47°34' W 052°42'0 0.0
2014-Dec-17 22:30N 47°34' W 052°42'0 0.0
2014-Dec-17 21:33N 47°34' W 052°42'0 0.0
2014-Dec-17 20:31N 47°34' W 052°42'0 0.0
2014-Dec-17 19:29N 47°34' W 052°42'0 0.0
2014-Dec-17 18:33N 47°34' W 052°42'0 0.0
2014-Dec-17 17:32N 47°34' W 052°42'0 0.0
2014-Dec-17 16:33N 47°34' W 052°42'0 0.0
2014-Dec-17 15:31N 47°34' W 052°42'0 0.0
2014-Dec-17 14:30N 47°34' W 052°42'0 0.0
2014-Dec-17 13:32N 47°34' W 052°42'0 0.0
2014-Dec-17 12:29N 47°34' W 052°42'0 0.5
2014-Dec-17 11:33N 47°34' W 052°42'0 0.0
2014-Dec-17 10:28N 47°34' W 052°42'0 0.0
2014-Dec-17 09:20N 47°34' W 052°42'0 0.0
2014-Dec-17 08:10N 47°34' W 052°42'0 0.0
2014-Dec-17 07:11N 47°34' W 052°42'0 0.0
2014-Dec-17 06:18N 47°34' W 052°42'0 0.0
2014-Dec-17 05:25N 47°34' W 052°42'0 0.0
2014-Dec-17 04:26N 47°34' W 052°42'0 0.0
2014-Dec-17 03:33N 47°34' W 052°42'0 0.0
2014-Dec-17 02:29N 47°34' W 052°42'0 0.0
2014-Dec-17 01:30N 47°34' W 052°42'0 0.0
2014-Dec-17 00:28N 47°34' W 052°42'0 0.0
2014-Dec-16 23:31N 47°34' W 052°42'0 0.0
2014-Dec-16 22:33N 47°34' W 052°42'0 0.0
2014-Dec-16 21:18N 47°34' W 052°42'0 0.0
2014-Dec-16 20:28N 47°34' W 052°42'0 0.0
2014-Dec-16 19:31N 47°34' W 052°42'0 0.0
2014-Dec-16 18:27N 47°34' W 052°42'0 0.2
2014-Dec-16 17:27N 47°34' W 052°42'9 9.8
2014-Dec-16 16:31N 47°33' W 052°28'1010.7
2014-Dec-16 15:33N 47°31' W 052°13'  
2014-Dec-11 20:22N 47°30' W 052°06'8 9.3
2014-Dec-11 19:32N 47°32' W 052°17'10 9.5
2014-Dec-11 18:30N 47°33' W 052°31'7 7.5
2014-Dec-11 17:33N 47°34' W 052°42'0 0.2
2014-Dec-11 16:31N 47°34' W 052°42'0 0.0
2014-Dec-11 15:30N 47°34' W 052°42'0 0.0
2014-Dec-11 14:33N 47°34' W 052°42'0 0.0
2014-Dec-11 13:31N 47°34' W 052°42'0 0.0
2014-Dec-11 12:33N 47°34' W 052°42'2 1.9
2014-Dec-11 11:30N 47°34' W 052°39'1110.0
2014-Dec-11 10:25N 47°23' W 052°40'6 0.1
2014-Dec-09 10:31N 47°17' W 052°39'1310.1
2014-Dec-09 09:12N 47°15' W 052°20'  

Dump ship's entire track history